Meteo Giornale » Osservazioni meteo Stati Uniti (USA) » Clovis Sys
ore: 04:56 - Osservazioni Meteo Clovis Sys
Lat. 34° 26' N Lon. 103° 5' W Alt. 1284 metri s.l.m.
19 °C
Nuvoloso
Temp. 24 Ore
19 °C
34 °C
Est/Sud-Est
13 Km/h
Dew point 12 °C
Umidità 63 %
Visibilità 10 Km
Il sole sorge alle ore 06:25
Il sole tramonta alle ore 19:18
| Data e Ora | Cielo e Fenomeni | T °C | DP °C | Um. % | Pres. hPa | Vis. km | Vento km/h | |
|---|---|---|---|---|---|---|---|---|
| Oggi h: 04:56 | Nuvoloso | 19 | 12 | 63 | 1021 | 10 | E/SE 13 | |
| Oggi h: 03:56 | Sereno | 19 | 12 | 63 | 1021 | 10 | SE 9.3 | |
| Oggi h: 02:56 | Sereno | 20 | 11 | 56 | 1021 | 10 | S/SE 9.3 | |
| Oggi h: 01:56 | Sereno | 21 | 12 | 56 | 1020 | 10 | S/SE 11.1 | |
| Oggi h: 00:56 | Sereno | 22 | 11 | 49 | 1020 | 10 | E/SE 9.3 | |
| Ieri h: 23:56 | Sereno | 23 | 11 | 46 | 1020 | 10 | S/SE 13 | |
| Ieri h: 22:56 | Sereno | 24 | 11 | 43 | 1020 | 13 | S/SE 14.8 | |
| Ieri h: 21:56 | Sereno | 26 | 10 | 36 | 1020 | 10 | SE 14.8 | |
| Ieri h: 20:56 | Sereno | 26 | 10 | 36 | 1019 | 10 | S/SE 14.8 | |
| Ieri h: 19:56 | Sereno | 28 | 10 | 32 | 1018 | 10 | S/SE 16.7 | |
| Ieri h: 18:56 | Sereno | 31 | 9 | 25 | 1018 | 10 | S/SE 22.2 | |
| Ieri h: 17:56 | Sereno | 32 | 10 | 25 | 1018 | 10 | S/SE 31.5 | |
| Ieri h: 16:56 | Sereno | 33 | 10 | 24 | 1018 | 10 | S/SE 25.9 | |
| Ieri h: 15:56 | Sereno | 34 | 9 | 21 | 1018 | 10 | S 24 | |
| Ieri h: 14:56 | Sereno | 34 | 9 | 21 | 1019 | 10 | SE 20.3 | |
| Ieri h: 13:56 | Sereno | 33 | 11 | 26 | 1020 | 10 | SE 25.9 | |
| Ieri h: 13:12 | Sereno | 33 | 11 | 26 | 1020 | 10 | E/SE 25.9 | |
| Ieri h: 12:56 | Sereno | 33 | 12 | 27 | 1020 | 10 | E/SE 20.3 | |
| Ieri h: 11:56 | Sereno | 32 | 13 | 31 | 1021 | 10 | S/SO 22.2 | |
| Ieri h: 10:56 | Sereno | 31 | 13 | 33 | 1021 | 10 | S/SE 24 | |
| Ieri h: 09:56 | Sereno | 28 | 15 | 45 | 1021 | 10 | S 18.5 | |
| Ieri h: 08:56 | Sereno | 26 | 15 | 50 | 1021 | 10 | S/SO 18.5 | |
| Ieri h: 07:56 | Sereno | 24 | 14 | 53 | 1020 | 10 | S/SO 20.3 | |
| Ieri h: 06:56 | Sereno | 19 | 12 | 63 | 1020 | 10 | SO 7.4 | |
| Ieri h: 05:56 | Sereno | 20 | 12 | 59 | 1019 | 10 | SO 11.1 | |



